createdAt,value
2022-09-21T00:01:24.820Z,5.70
2022-09-21T00:03:59.963Z,5.82
2022-09-21T00:06:29.764Z,6.30
2022-09-21T00:08:57.051Z,5.90
2022-09-21T00:11:27.948Z,5.90
2022-09-21T00:13:59.650Z,6.45
2022-09-21T00:16:27.936Z,5.15
2022-09-21T00:18:55.358Z,4.55
2022-09-21T00:21:21.995Z,5.30
2022-09-21T00:23:49.186Z,4.95
2022-09-21T00:26:25.005Z,5.50
2022-09-21T00:28:58.273Z,5.97
2022-09-21T00:31:27.715Z,5.60
2022-09-21T00:33:54.912Z,5.30
2022-09-21T00:36:24.461Z,6.65
2022-09-21T00:38:54.768Z,6.13
2022-09-21T00:41:21.898Z,5.68
2022-09-21T00:44:18.400Z,4.80
2022-09-21T00:46:49.139Z,4.78
2022-09-21T00:49:16.860Z,5.72
2022-09-21T00:51:44.588Z,5.70
2022-09-21T00:54:23.093Z,5.18
2022-09-21T00:56:50.414Z,5.25
2022-09-21T00:59:21.555Z,5.35
2022-09-21T01:01:49.181Z,5.68
2022-09-21T01:04:18.795Z,5.85
2022-09-21T01:06:47.772Z,5.95
2022-09-21T01:09:16.224Z,5.03
2022-09-21T01:12:07.608Z,4.95
2022-09-21T01:14:52.133Z,5.28
2022-09-21T01:17:45.372Z,5.57
2022-09-21T01:21:03.439Z,6.47
2022-09-21T01:24:07.075Z,5.47
2022-09-21T01:26:55.153Z,5.80
2022-09-21T01:29:27.821Z,5.55
2022-09-21T01:31:58.137Z,6.18
2022-09-21T01:34:30.906Z,6.70
2022-09-21T01:37:03.206Z,5.35
2022-09-21T01:39:30.450Z,6.60
2022-09-21T01:41:58.468Z,6.32
2022-09-21T01:44:33.258Z,6.32
2022-09-21T01:47:07.276Z,5.40
2022-09-21T01:49:40.268Z,6.53
2022-09-21T01:52:26.150Z,6.68
2022-09-21T01:55:01.040Z,6.57
2022-09-21T01:57:59.888Z,5.90
2022-09-21T02:00:28.347Z,4.90
2022-09-21T02:03:08.670Z,5.30
2022-09-21T02:05:36.219Z,6.80
2022-09-21T02:08:05.317Z,5.43
2022-09-21T02:10:39.091Z,5.82
2022-09-21T02:13:08.682Z,6.05
2022-09-21T02:15:50.381Z,5.32
2022-09-21T02:18:58.013Z,5.18
2022-09-21T02:21:45.824Z,5.85
2022-09-21T02:24:43.223Z,5.10
2022-09-21T02:27:35.319Z,5.40
2022-09-21T02:30:27.244Z,4.97
2022-09-21T02:33:26.396Z,5.80
2022-09-21T02:36:12.732Z,4.85
2022-09-21T02:41:36.592Z,4.45
2022-09-21T02:44:18.746Z,4.57
2022-09-21T02:47:04.025Z,5.40
2022-09-21T02:49:38.108Z,5.45
2022-09-21T02:52:13.561Z,5.43
2022-09-21T02:54:43.787Z,5.93
2022-09-21T02:57:12.941Z,5.82
2022-09-21T02:59:40.522Z,4.30
2022-09-21T03:02:07.160Z,4.45
2022-09-21T03:04:34.046Z,4.72
2022-09-21T03:07:00.602Z,6.32
2022-09-21T03:09:27.188Z,5.68
2022-09-21T03:11:54.541Z,5.93
2022-09-21T03:14:21.088Z,6.65
2022-09-21T03:16:47.636Z,6.25
2022-09-21T03:19:14.934Z,5.53
2022-09-21T03:21:44.605Z,6.00
2022-09-21T03:24:12.272Z,7.57
2022-09-21T03:26:38.997Z,6.50
2022-09-21T03:29:05.629Z,6.05
2022-09-21T03:31:32.398Z,6.65
2022-09-21T03:33:59.321Z,9.57
2022-09-21T03:36:25.923Z,6.68
2022-09-21T03:38:52.521Z,7.57
2022-09-21T03:41:19.376Z,6.18
2022-09-21T03:43:45.990Z,6.30
2022-09-21T03:46:12.614Z,7.30
2022-09-21T03:48:40.643Z,5.90
2022-09-21T03:51:07.222Z,5.93
2022-09-21T03:53:33.778Z,7.57
2022-09-21T03:56:00.531Z,15.70
2022-09-21T03:58:27.085Z,6.82
2022-09-21T04:00:54.380Z,7.45
2022-09-21T04:03:20.949Z,7.82
2022-09-21T04:05:47.540Z,6.43
2022-09-21T04:08:14.114Z,16.42
2022-09-21T04:10:42.604Z,7.10
2022-09-21T04:13:09.322Z,7.05
2022-09-21T04:15:36.707Z,5.97
2022-09-21T04:18:03.407Z,9.25
2022-09-21T04:20:29.998Z,6.95
2022-09-21T04:22:56.701Z,7.28
2022-09-21T04:25:23.364Z,8.45
2022-09-21T04:27:49.965Z,7.72
2022-09-21T04:30:17.142Z,6.97
2022-09-21T04:32:44.232Z,7.93
2022-09-21T04:35:11.231Z,7.45
2022-09-21T04:37:37.865Z,7.60
2022-09-21T04:40:06.090Z,7.03
2022-09-21T04:42:32.788Z,7.00
2022-09-21T04:44:59.393Z,6.63
2022-09-21T04:47:26.130Z,7.47
2022-09-21T04:49:53.454Z,7.30
2022-09-21T04:52:20.157Z,8.55
2022-09-21T04:54:47.881Z,8.40
2022-09-21T04:57:15.357Z,7.85
2022-09-21T04:59:41.950Z,6.93
2022-09-21T05:02:08.964Z,6.93
2022-09-21T05:04:35.605Z,8.43
2022-09-21T05:07:02.300Z,8.65
2022-09-21T05:09:47.370Z,9.65
2022-09-21T05:12:14.002Z,8.98
2022-09-21T05:14:41.061Z,7.82
2022-09-21T05:17:07.698Z,8.02
2022-09-21T05:19:34.336Z,7.57
2022-09-21T05:22:00.918Z,9.45
2022-09-21T05:24:27.501Z,8.70
2022-09-21T05:26:54.080Z,8.40
2022-09-21T05:29:21.141Z,8.57
2022-09-21T05:31:54.546Z,9.32
2022-09-21T05:34:36.859Z,7.70
2022-09-21T05:37:09.816Z,7.18
2022-09-21T05:39:36.915Z,8.02
2022-09-21T05:42:04.146Z,7.18
2022-09-21T05:44:31.051Z,8.32
2022-09-21T05:47:12.769Z,8.43
2022-09-21T05:50:03.052Z,9.40
2022-09-21T05:53:15.003Z,7.68
2022-09-21T05:56:35.733Z,8.70
2022-09-21T05:59:04.864Z,7.95
2022-09-21T06:01:39.577Z,7.47
2022-09-21T06:04:12.713Z,7.47
2022-09-21T06:06:39.495Z,9.02
2022-09-21T06:09:06.256Z,9.15
2022-09-21T06:11:33.160Z,8.45
2022-09-21T06:14:02.728Z,7.65
2022-09-21T06:16:40.934Z,9.85
2022-09-21T06:19:11.659Z,9.93
2022-09-21T06:21:38.225Z,7.90
2022-09-21T06:24:05.105Z,8.02
2022-09-21T06:26:31.716Z,7.45
2022-09-21T06:28:58.303Z,8.00
2022-09-21T06:31:26.813Z,6.45
2022-09-21T06:33:53.605Z,6.78
2022-09-21T06:36:20.200Z,6.38
2022-09-21T06:38:46.887Z,5.43
2022-09-21T06:41:18.655Z,6.85
2022-09-21T06:43:47.541Z,6.18
2022-09-21T06:46:14.425Z,5.75
2022-09-21T06:48:41.036Z,5.65
2022-09-21T06:51:07.678Z,5.25
2022-09-21T06:53:35.068Z,5.43
2022-09-21T06:56:10.057Z,5.45
2022-09-21T06:58:37.721Z,6.73
2022-09-21T07:01:10.445Z,6.13
2022-09-21T07:03:38.817Z,6.53
2022-09-21T07:06:07.082Z,5.82
2022-09-21T07:11:22.051Z,6.00
2022-09-21T07:13:48.706Z,6.43
2022-09-21T07:16:16.090Z,5.75
2022-09-21T07:18:44.158Z,5.65
2022-09-21T07:21:12.074Z,6.45
2022-09-21T07:23:38.924Z,7.00
2022-09-21T07:26:09.108Z,6.00
2022-09-21T07:28:36.222Z,5.60
2022-09-21T07:31:12.307Z,6.28
2022-09-21T07:33:38.890Z,7.40
2022-09-21T07:36:10.442Z,6.38
2022-09-21T07:38:46.358Z,6.68
2022-09-21T07:43:41.924Z,6.93
2022-09-21T07:46:14.550Z,6.25
2022-09-21T07:48:41.620Z,5.88
2022-09-21T07:51:12.009Z,6.65
2022-09-21T07:53:42.335Z,6.97
2022-09-21T07:56:13.158Z,7.60
2022-09-21T07:58:58.723Z,7.40
2022-09-21T08:01:26.914Z,8.98
2022-09-21T08:03:57.392Z,8.18
2022-09-21T08:06:27.356Z,7.53
2022-09-21T08:08:57.673Z,8.18
2022-09-21T08:11:27.481Z,7.65
2022-09-21T08:14:01.310Z,8.52
2022-09-21T08:16:29.962Z,7.88
2022-09-21T08:18:56.905Z,7.18
2022-09-21T08:21:23.523Z,8.05
2022-09-21T08:23:50.235Z,9.20
2022-09-21T08:26:19.936Z,8.00
2022-09-21T08:28:49.238Z,7.63
2022-09-21T08:31:19.620Z,8.43
2022-09-21T08:33:48.121Z,8.73
2022-09-21T08:36:14.912Z,8.57
2022-09-21T08:38:41.813Z,8.27
2022-09-21T08:41:39.360Z,7.95
2022-09-21T08:44:21.242Z,8.80
2022-09-21T08:47:02.232Z,8.55
2022-09-21T08:49:31.388Z,8.02
2022-09-21T08:52:05.509Z,7.57
2022-09-21T08:54:44.564Z,8.30
2022-09-21T08:57:16.192Z,7.95
2022-09-21T08:59:49.287Z,7.80
2022-09-21T09:02:30.972Z,7.70
2022-09-21T09:05:11.676Z,7.78
2022-09-21T09:07:59.636Z,8.02
2022-09-21T09:10:43.656Z,7.78
2022-09-21T09:13:53.248Z,7.80
2022-09-21T09:16:41.608Z,6.55
2022-09-21T09:19:32.504Z,8.68
2022-09-21T09:22:03.502Z,8.07
2022-09-21T09:24:39.057Z,7.68
2022-09-21T09:27:20.894Z,5.53
2022-09-21T09:30:15.543Z,7.18
2022-09-21T09:33:03.803Z,7.20
2022-09-21T09:35:44.623Z,7.07
2022-09-21T09:38:40.830Z,6.75
2022-09-21T09:41:28.882Z,6.13
2022-09-21T09:44:12.104Z,5.45
2022-09-21T09:47:06.839Z,5.00
2022-09-21T09:50:10.601Z,5.45
2022-09-21T09:52:37.699Z,5.43
2022-09-21T09:55:24.769Z,3.67
2022-09-21T09:57:54.829Z,4.45
2022-09-21T10:00:22.279Z,3.58
2022-09-21T10:02:58.555Z,3.13
2022-09-21T10:05:35.387Z,2.78
2022-09-21T10:08:02.350Z,2.95
2022-09-21T10:10:28.876Z,3.30
2022-09-21T10:13:14.474Z,2.47
2022-09-21T10:16:14.422Z,2.30
2022-09-21T10:19:21.394Z,2.08
2022-09-21T10:21:52.330Z,2.30
2022-09-21T10:24:25.153Z,1.55
2022-09-21T10:27:03.742Z,1.95
2022-09-21T10:29:46.049Z,2.00
2022-09-21T10:32:14.921Z,1.90
2022-09-21T10:35:01.104Z,1.55
2022-09-21T10:37:43.259Z,1.50
2022-09-21T10:40:19.226Z,1.15
2022-09-21T10:42:48.568Z,1.27
2022-09-21T10:45:18.083Z,1.60
2022-09-21T10:47:50.717Z,1.60
2022-09-21T10:50:23.391Z,1.42
2022-09-21T10:52:56.713Z,1.80
2022-09-21T10:55:25.089Z,1.20
2022-09-21T10:57:53.221Z,1.58
2022-09-21T11:00:26.158Z,1.95
2022-09-21T11:02:54.880Z,0.93
2022-09-21T11:05:35.889Z,1.00
2022-09-21T11:08:16.002Z,0.90
2022-09-21T11:10:50.032Z,1.00
2022-09-21T11:13:31.478Z,1.20
2022-09-21T11:16:38.587Z,1.33
2022-09-21T11:19:52.367Z,1.10
2022-09-21T11:23:00.556Z,1.17
2022-09-21T11:25:28.688Z,1.08
2022-09-21T11:28:05.386Z,1.58
2022-09-21T11:31:01.992Z,0.85
2022-09-21T11:33:28.503Z,1.05
2022-09-21T11:36:23.082Z,0.98
2022-09-21T11:39:06.852Z,0.97
2022-09-21T11:42:03.746Z,0.85
2022-09-21T11:45:00.736Z,0.95
2022-09-21T11:48:09.876Z,0.90
2022-09-21T11:51:00.774Z,1.30
2022-09-21T11:53:54.081Z,1.00
2022-09-21T11:56:49.981Z,0.60
2022-09-21T11:59:44.718Z,1.13
2022-09-21T12:02:26.693Z,0.63
2022-09-21T12:05:19.562Z,0.80
2022-09-21T12:08:23.672Z,0.82
2022-09-21T12:11:12.484Z,1.10
2022-09-21T12:13:49.184Z,1.33
2022-09-21T12:16:55.853Z,0.98
2022-09-21T12:19:45.295Z,1.25
2022-09-21T12:22:29.643Z,1.13
2022-09-21T12:25:10.466Z,0.82
2022-09-21T12:27:41.451Z,0.88
2022-09-21T12:30:19.017Z,0.85
2022-09-21T12:32:51.453Z,0.70
2022-09-21T12:35:24.228Z,0.95
2022-09-21T12:38:19.007Z,0.68
2022-09-21T12:41:37.689Z,1.00
2022-09-21T12:44:33.601Z,0.60
2022-09-21T12:47:13.362Z,1.00
2022-09-21T12:49:46.382Z,0.57
2022-09-21T12:52:22.698Z,0.70
2022-09-21T12:55:32.184Z,0.90
2022-09-21T12:58:34.205Z,1.00
2022-09-21T13:01:20.806Z,1.10
2022-09-21T13:03:59.253Z,1.40
2022-09-21T13:06:54.056Z,1.00
2022-09-21T13:09:22.047Z,0.90
2022-09-21T13:12:00.058Z,1.10
2022-09-21T13:14:36.154Z,0.75
2022-09-21T13:17:05.697Z,0.98
2022-09-21T13:19:35.583Z,0.80
2022-09-21T13:22:23.906Z,0.90
2022-09-21T13:25:23.963Z,1.17
2022-09-21T13:28:07.682Z,0.80
2022-09-21T13:30:50.177Z,0.90
2022-09-21T13:33:19.769Z,0.70
2022-09-21T13:36:02.236Z,1.10
2022-09-21T13:38:54.543Z,0.88
2022-09-21T13:44:17.863Z,0.98
2022-09-21T13:46:54.056Z,0.82
2022-09-21T13:49:50.726Z,1.33
2022-09-21T13:52:17.343Z,1.02
2022-09-21T13:54:59.665Z,1.05
2022-09-21T13:57:36.870Z,1.13
2022-09-21T14:00:12.769Z,1.17
2022-09-21T14:02:46.988Z,1.00
2022-09-21T14:05:30.150Z,1.17
2022-09-21T14:08:23.210Z,0.90
2022-09-21T14:11:02.021Z,1.45
2022-09-21T14:13:46.525Z,0.98
2022-09-21T14:16:37.228Z,1.00
2022-09-21T14:19:17.109Z,1.10
2022-09-21T14:22:06.440Z,1.08
2022-09-21T14:24:50.011Z,1.20
2022-09-21T14:27:33.168Z,1.25
2022-09-21T14:30:20.062Z,1.20
2022-09-21T14:32:59.286Z,1.70
2022-09-21T14:35:33.903Z,1.10
2022-09-21T14:38:07.920Z,1.00
2022-09-21T14:40:39.232Z,0.90
2022-09-21T14:43:15.540Z,0.80
2022-09-21T14:46:24.137Z,0.98
2022-09-21T14:49:11.807Z,0.77
2022-09-21T14:52:22.488Z,0.70
2022-09-21T14:55:34.148Z,1.05
2022-09-21T14:58:41.706Z,1.50
2022-09-21T15:01:35.228Z,1.10
2022-09-21T15:04:45.317Z,1.33
2022-09-21T15:08:13.282Z,1.85
2022-09-21T15:10:57.911Z,1.08
2022-09-21T15:13:49.287Z,1.05
2022-09-21T15:16:45.621Z,0.90
2022-09-21T15:19:18.208Z,1.05
2022-09-21T15:21:48.578Z,1.05
2022-09-21T15:24:34.161Z,1.20
2022-09-21T15:27:15.979Z,1.40
2022-09-21T15:29:53.644Z,1.20
2022-09-21T15:32:40.405Z,1.48
2022-09-21T15:35:27.686Z,1.40
2022-09-21T15:37:56.052Z,1.33
2022-09-21T15:40:32.434Z,0.98
2022-09-21T15:43:18.892Z,0.88
2022-09-21T15:46:12.080Z,0.95
2022-09-21T15:48:41.996Z,0.80
2022-09-21T15:51:27.020Z,0.88
2022-09-21T15:54:32.168Z,1.30
2022-09-21T15:57:08.567Z,1.00
2022-09-21T15:59:35.736Z,1.20
2022-09-21T16:02:17.214Z,1.10
2022-09-21T16:04:51.893Z,1.20
2022-09-21T16:07:37.338Z,0.90
2022-09-21T16:10:38.919Z,1.17
2022-09-21T16:13:38.278Z,0.93
2022-09-21T16:16:14.921Z,1.00
2022-09-21T16:18:47.146Z,0.90
2022-09-21T16:21:27.472Z,1.42
2022-09-21T16:23:57.691Z,0.90
2022-09-21T16:26:34.750Z,1.05
2022-09-21T16:29:48.366Z,1.17
2022-09-21T16:35:28.946Z,0.90
2022-09-21T16:37:58.004Z,1.10
2022-09-21T16:40:27.036Z,0.95
2022-09-21T16:42:54.147Z,0.95
2022-09-21T16:45:31.656Z,1.13
2022-09-21T16:47:59.557Z,0.90
2022-09-21T16:50:26.728Z,1.10
2022-09-21T16:52:53.320Z,1.17
2022-09-21T16:55:24.354Z,1.10
2022-09-21T16:57:53.767Z,1.17
2022-09-21T17:00:21.840Z,1.20
2022-09-21T17:02:49.402Z,1.83
2022-09-21T17:05:17.977Z,1.10
2022-09-21T17:07:56.477Z,1.02
2022-09-21T17:10:37.311Z,0.82
2022-09-21T17:13:06.194Z,1.20
2022-09-21T17:15:33.766Z,1.17
2022-09-21T17:18:00.407Z,1.00
2022-09-21T17:20:41.649Z,1.30
2022-09-21T17:23:08.670Z,2.38
2022-09-21T17:25:36.799Z,1.17
2022-09-21T17:28:25.934Z,1.13
2022-09-21T17:30:55.789Z,1.00
2022-09-21T17:33:25.287Z,1.20
2022-09-21T17:35:55.076Z,1.52
2022-09-21T17:38:21.721Z,2.15
2022-09-21T17:40:48.623Z,1.20
2022-09-21T17:43:22.164Z,1.10
2022-09-21T17:46:13.146Z,1.42
2022-09-21T17:48:40.893Z,1.50
2022-09-21T17:51:08.358Z,2.03
2022-09-21T17:53:37.171Z,1.25
2022-09-21T17:56:32.677Z,1.50
2022-09-21T17:59:05.236Z,1.35
2022-09-21T18:01:39.813Z,1.63
2022-09-21T18:04:10.707Z,1.80
2022-09-21T18:06:37.711Z,2.42
2022-09-21T18:09:05.002Z,2.20
2022-09-21T18:12:04.034Z,1.80
2022-09-21T18:14:52.883Z,2.10
2022-09-21T18:17:47.424Z,2.05
2022-09-21T18:20:41.075Z,2.38
2022-09-21T18:23:22.067Z,1.92
2022-09-21T18:25:57.056Z,2.10
2022-09-21T18:28:41.486Z,2.83
2022-09-21T18:31:48.304Z,2.13
2022-09-21T18:34:39.580Z,1.90
2022-09-21T18:37:29.773Z,1.98
2022-09-21T18:40:21.808Z,2.17
2022-09-21T18:42:49.380Z,2.65
2022-09-21T18:45:28.305Z,2.15
2022-09-21T18:48:35.275Z,2.42
2022-09-21T18:51:57.401Z,2.90
2022-09-21T18:54:28.616Z,2.42
2022-09-21T18:56:55.955Z,1.95
2022-09-21T18:59:23.052Z,3.90
2022-09-21T19:01:50.711Z,3.38
2022-09-21T19:04:20.016Z,2.47
2022-09-21T19:06:59.454Z,3.08
2022-09-21T19:09:35.294Z,2.83
2022-09-21T19:12:31.648Z,3.10
2022-09-21T19:15:13.919Z,2.78
2022-09-21T19:17:57.812Z,3.63
2022-09-21T19:20:49.672Z,3.28
2022-09-21T19:23:50.371Z,2.97
2022-09-21T19:27:03.404Z,3.22
2022-09-21T19:29:52.125Z,3.25
2022-09-21T19:32:41.977Z,3.58
2022-09-21T19:35:30.380Z,2.85
2022-09-21T19:38:01.328Z,2.30
2022-09-21T19:40:36.954Z,3.08
2022-09-21T19:43:15.359Z,3.35
2022-09-21T19:46:06.043Z,4.22
2022-09-21T19:48:59.532Z,3.85
2022-09-21T19:51:55.843Z,3.30
2022-09-21T19:54:43.937Z,3.20
2022-09-21T19:57:39.343Z,3.08
2022-09-21T20:00:10.836Z,3.05
2022-09-21T20:02:53.095Z,2.80
2022-09-21T20:05:38.322Z,3.55
2022-09-21T20:08:18.932Z,4.18
2022-09-21T20:11:01.744Z,3.05
2022-09-21T20:14:01.429Z,3.22
2022-09-21T20:16:46.776Z,3.60
2022-09-21T20:19:22.200Z,4.32
2022-09-21T20:21:55.942Z,3.70
2022-09-21T20:24:30.581Z,2.85
2022-09-21T20:26:57.455Z,3.88
2022-09-21T20:29:24.016Z,3.72
2022-09-21T20:31:52.929Z,3.92
2022-09-21T20:34:20.680Z,3.92
2022-09-21T20:36:47.319Z,3.80
2022-09-21T20:39:13.941Z,4.35
2022-09-21T20:41:40.598Z,3.60
2022-09-21T20:44:12.349Z,3.60
2022-09-21T20:46:39.138Z,4.25
2022-09-21T20:49:08.436Z,4.65
2022-09-21T20:51:35.960Z,3.47
2022-09-21T20:54:04.050Z,4.22
2022-09-21T20:56:31.521Z,4.88
2022-09-21T20:58:59.126Z,5.15
2022-09-21T21:01:26.844Z,4.90
2022-09-21T21:04:01.601Z,4.45
2022-09-21T21:06:31.141Z,4.85
2022-09-21T21:08:58.172Z,3.50
2022-09-21T21:11:27.918Z,4.03
2022-09-21T21:13:56.122Z,3.97
2022-09-21T21:16:23.163Z,4.72
2022-09-21T21:18:50.059Z,4.20
2022-09-21T21:21:16.651Z,4.32
2022-09-21T21:24:01.991Z,4.35
2022-09-21T21:26:50.286Z,5.05
2022-09-21T21:29:15.131Z,4.43
2022-09-21T21:31:41.778Z,5.00
2022-09-21T21:34:08.624Z,5.28
2022-09-21T21:36:35.230Z,4.32
2022-09-21T21:39:01.864Z,6.10
2022-09-21T21:41:29.114Z,5.88
2022-09-21T21:43:55.784Z,6.03
2022-09-21T21:46:22.651Z,6.07
2022-09-21T21:48:49.355Z,5.50
2022-09-21T21:51:15.937Z,6.35
2022-09-21T21:53:43.623Z,4.82
2022-09-21T21:56:13.610Z,5.60
2022-09-21T21:58:40.726Z,7.18
2022-09-21T22:01:19.201Z,5.00
2022-09-21T22:03:45.900Z,5.60
2022-09-21T22:06:12.470Z,6.25
2022-09-21T22:08:40.429Z,5.72
2022-09-21T22:11:07.631Z,5.78
2022-09-21T22:13:37.557Z,5.60
2022-09-21T22:16:14.356Z,6.18
2022-09-21T22:18:42.032Z,5.15
2022-09-21T22:21:13.907Z,5.95
2022-09-21T22:23:41.245Z,6.00
2022-09-21T22:26:11.206Z,5.30
2022-09-21T22:28:40.490Z,5.38
2022-09-21T22:31:15.362Z,5.15
2022-09-21T22:33:43.184Z,5.60
2022-09-21T22:36:13.712Z,6.18
2022-09-21T22:38:43.038Z,6.30
2022-09-21T22:41:14.868Z,6.40
2022-09-21T22:43:41.503Z,7.03
2022-09-21T22:46:08.190Z,6.35
2022-09-21T22:48:35.344Z,5.95
2022-09-21T22:51:02.864Z,5.60
2022-09-21T22:53:31.391Z,5.32
2022-09-21T22:56:26.900Z,6.18
2022-09-21T22:58:56.636Z,6.35
2022-09-21T23:01:25.977Z,6.13
2022-09-21T23:03:59.593Z,6.32
2022-09-21T23:06:33.239Z,6.90
2022-09-21T23:09:03.638Z,6.38
2022-09-21T23:11:34.325Z,6.28
2022-09-21T23:14:01.077Z,6.68
2022-09-21T23:16:29.773Z,6.57
2022-09-21T23:18:57.863Z,6.75
2022-09-21T23:21:28.036Z,5.53
2022-09-21T23:24:00.920Z,5.85
2022-09-21T23:26:30.498Z,5.95
2022-09-21T23:29:00.560Z,6.85
2022-09-21T23:31:28.836Z,6.18
2022-09-21T23:34:08.512Z,5.82
2022-09-21T23:36:36.381Z,5.97
2022-09-21T23:39:03.895Z,6.72
2022-09-21T23:41:34.380Z,6.53
2022-09-21T23:44:01.823Z,7.50
2022-09-21T23:46:32.513Z,6.80
2022-09-21T23:49:00.234Z,6.45
2022-09-21T23:51:27.775Z,7.68
2022-09-21T23:53:54.463Z,6.93
2022-09-21T23:56:23.820Z,9.60
2022-09-21T23:58:50.989Z,9.35
